createdAt,value
2023-01-17T00:02:20.995Z,79.74
2023-01-17T00:05:12.351Z,79.87
2023-01-17T00:07:58.692Z,80.35
2023-01-17T00:10:28.301Z,80.40
2023-01-17T00:13:03.882Z,80.55
2023-01-17T00:15:32.447Z,81.05
2023-01-17T00:18:00.463Z,81.18
2023-01-17T00:20:50.973Z,80.86
2023-01-17T00:23:40.973Z,80.84
2023-01-17T00:26:14.912Z,81.21
2023-01-17T00:28:43.818Z,81.32
2023-01-17T00:31:13.868Z,81.59
2023-01-17T00:33:41.996Z,81.66
2023-01-17T00:36:10.899Z,81.25
2023-01-17T00:38:40.424Z,81.24
2023-01-17T00:41:11.281Z,81.30
2023-01-17T00:43:58.094Z,81.16
2023-01-17T00:46:44.590Z,81.37
2023-01-17T00:49:31.264Z,81.40
2023-01-17T00:52:18.095Z,81.28
2023-01-17T00:55:04.752Z,81.67
2023-01-17T00:57:51.587Z,81.56
2023-01-17T01:00:38.146Z,81.32
2023-01-17T01:03:28.659Z,81.47
2023-01-17T01:06:15.500Z,81.81
2023-01-17T01:09:02.524Z,81.97
2023-01-17T01:11:48.770Z,82.10
2023-01-17T01:14:35.452Z,82.17
2023-01-17T01:17:22.459Z,82.08
2023-01-17T01:20:09.165Z,81.82
2023-01-17T01:22:55.765Z,81.89
2023-01-17T01:25:42.486Z,81.84
2023-01-17T01:28:31.912Z,81.84
2023-01-17T01:31:22.488Z,81.72
2023-01-17T01:33:52.271Z,81.79
2023-01-17T01:36:21.162Z,82.17
2023-01-17T01:38:50.432Z,82.58
2023-01-17T01:41:18.503Z,82.58
2023-01-17T01:43:52.891Z,82.70
2023-01-17T01:46:24.107Z,83.01
2023-01-17T01:48:58.945Z,83.73
2023-01-17T01:51:33.464Z,83.94
2023-01-17T01:54:08.199Z,83.54
2023-01-17T01:56:37.657Z,83.40
2023-01-17T01:59:10.530Z,83.40
2023-01-17T02:01:38.761Z,83.43
2023-01-17T02:04:12.077Z,83.66
2023-01-17T02:06:46.014Z,83.83
2023-01-17T02:09:17.142Z,84.28
2023-01-17T02:11:47.445Z,84.23
2023-01-17T02:14:21.061Z,83.84
2023-01-17T02:17:12.258Z,83.83
2023-01-17T02:19:51.963Z,84.36
2023-01-17T02:22:57.313Z,84.56
2023-01-17T02:25:57.091Z,85.19
2023-01-17T02:28:50.261Z,84.97
2023-01-17T02:31:23.344Z,85.04
2023-01-17T02:34:00.524Z,85.32
2023-01-17T02:36:46.586Z,85.34
2023-01-17T02:39:22.864Z,85.53
2023-01-17T02:42:04.777Z,85.79
2023-01-17T02:44:41.939Z,86.18
2023-01-17T02:47:28.301Z,86.40
2023-01-17T02:50:05.427Z,86.63
2023-01-17T02:53:02.515Z,86.65
2023-01-17T02:55:39.344Z,86.56
2023-01-17T02:58:19.340Z,86.56
2023-01-17T03:00:58.018Z,86.38
2023-01-17T03:03:34.480Z,86.09
2023-01-17T03:06:11.820Z,86.19
2023-01-17T03:08:43.419Z,86.16
2023-01-17T03:11:12.615Z,86.03
2023-01-17T03:13:41.342Z,86.15
2023-01-17T03:16:20.751Z,86.07
2023-01-17T03:18:49.400Z,86.05
2023-01-17T03:21:17.642Z,85.77
2023-01-17T03:23:45.760Z,85.51
2023-01-17T03:26:13.863Z,85.42
2023-01-17T03:28:41.902Z,84.98
2023-01-17T03:31:09.933Z,84.59
2023-01-17T03:33:37.837Z,84.78
2023-01-17T03:36:05.961Z,84.74
2023-01-17T03:38:33.880Z,84.59
2023-01-17T03:41:01.768Z,85.11
2023-01-17T03:43:29.771Z,84.96
2023-01-17T03:46:07.053Z,85.00
2023-01-17T03:48:35.004Z,84.90
2023-01-17T03:51:03.059Z,84.84
2023-01-17T03:53:30.908Z,84.53
2023-01-17T03:55:58.909Z,84.27
2023-01-17T03:58:26.738Z,83.95
2023-01-17T04:00:54.728Z,83.81
2023-01-17T04:03:22.645Z,83.77
2023-01-17T04:05:50.707Z,83.72
2023-01-17T04:08:18.911Z,83.91
2023-01-17T04:10:46.826Z,83.71
2023-01-17T04:13:16.792Z,83.65
2023-01-17T04:15:46.111Z,83.72
2023-01-17T04:18:14.113Z,83.72
2023-01-17T04:20:42.253Z,83.64
2023-01-17T04:23:10.454Z,83.64
2023-01-17T04:25:38.453Z,83.40
2023-01-17T04:28:06.555Z,83.41
2023-01-17T04:30:34.590Z,83.65
2023-01-17T04:33:03.071Z,83.75
2023-01-17T04:35:31.778Z,83.77
2023-01-17T04:37:59.938Z,83.60
2023-01-17T04:40:29.600Z,83.33
2023-01-17T04:42:58.037Z,83.16
2023-01-17T04:45:26.259Z,82.93
2023-01-17T04:47:54.095Z,82.84
2023-01-17T04:50:21.962Z,82.73
2023-01-17T04:52:49.900Z,82.95
2023-01-17T04:55:17.986Z,83.52
2023-01-17T04:57:45.864Z,84.10
2023-01-17T05:00:14.321Z,84.20
2023-01-17T05:02:42.355Z,84.28
2023-01-17T05:05:10.848Z,84.40
2023-01-17T05:07:39.200Z,84.32
2023-01-17T05:10:07.604Z,84.50
2023-01-17T05:12:35.467Z,84.84
2023-01-17T05:15:03.637Z,85.04
2023-01-17T05:17:31.569Z,85.31
2023-01-17T05:19:59.557Z,85.70
2023-01-17T05:22:27.404Z,86.98
2023-01-17T05:24:55.422Z,87.73
2023-01-17T05:27:25.817Z,88.45
2023-01-17T05:29:53.754Z,89.65
2023-01-17T05:32:21.753Z,90.38
2023-01-17T05:34:51.195Z,90.78
2023-01-17T05:37:19.198Z,91.18
2023-01-17T05:39:47.087Z,91.29
2023-01-17T05:42:15.431Z,91.57
2023-01-17T05:44:46.353Z,91.77
2023-01-17T05:47:15.357Z,91.86
2023-01-17T05:49:45.895Z,91.98
2023-01-17T05:52:14.315Z,93.11
2023-01-17T05:54:42.199Z,93.09
2023-01-17T05:57:10.222Z,93.96
2023-01-17T05:59:38.086Z,94.13
2023-01-17T06:02:06.079Z,94.30
2023-01-17T06:04:34.066Z,94.40
2023-01-17T06:07:02.226Z,94.72
2023-01-17T06:09:30.265Z,94.93
2023-01-17T06:11:58.141Z,94.94
2023-01-17T06:14:26.107Z,94.99
2023-01-17T06:16:54.274Z,94.83
2023-01-17T06:19:22.218Z,94.84
2023-01-17T06:21:50.758Z,94.76
2023-01-17T06:24:18.920Z,95.09
2023-01-17T06:26:48.687Z,94.75
2023-01-17T06:29:17.764Z,94.63
2023-01-17T06:31:45.734Z,94.66
2023-01-17T06:34:13.625Z,94.82
2023-01-17T06:36:41.815Z,94.09
2023-01-17T06:39:10.995Z,93.96
2023-01-17T06:41:38.946Z,93.61
2023-01-17T06:44:08.033Z,93.93
2023-01-17T06:46:36.364Z,94.00
2023-01-17T06:49:04.332Z,92.89
2023-01-17T06:51:32.485Z,92.63
2023-01-17T06:54:01.341Z,92.65
2023-01-17T06:56:33.434Z,92.49
2023-01-17T06:59:01.334Z,92.32
2023-01-17T07:01:29.648Z,92.54
2023-01-17T07:03:58.132Z,92.54
2023-01-17T07:06:28.857Z,92.61
2023-01-17T07:08:56.971Z,92.16
2023-01-17T07:11:25.050Z,92.46
2023-01-17T07:13:53.133Z,92.58
2023-01-17T07:16:21.103Z,92.39
2023-01-17T07:18:49.800Z,92.05
2023-01-17T07:21:17.712Z,92.21
2023-01-17T07:23:45.591Z,91.94
2023-01-17T07:26:13.603Z,91.56
2023-01-17T07:28:41.492Z,91.38
2023-01-17T07:31:09.366Z,90.98
2023-01-17T07:33:37.320Z,91.05
2023-01-17T07:36:07.454Z,91.23
2023-01-17T07:38:35.791Z,91.00
2023-01-17T07:41:03.898Z,90.75
2023-01-17T07:43:31.939Z,90.80
2023-01-17T07:46:02.120Z,90.86
2023-01-17T07:48:30.620Z,91.03
2023-01-17T07:50:58.811Z,90.52
2023-01-17T07:53:29.033Z,90.51
2023-01-17T07:56:02.726Z,90.70
2023-01-17T07:58:32.136Z,90.32
2023-01-17T08:01:09.319Z,90.05
2023-01-17T08:03:40.169Z,89.97
2023-01-17T08:06:22.157Z,89.97
2023-01-17T08:08:50.896Z,89.79
2023-01-17T08:11:18.985Z,89.77
2023-01-17T08:13:46.946Z,89.96
2023-01-17T08:16:15.485Z,89.87
2023-01-17T08:18:43.514Z,89.81
2023-01-17T08:21:15.247Z,89.90
2023-01-17T08:23:47.380Z,90.00
2023-01-17T08:26:21.421Z,90.22
2023-01-17T08:28:55.891Z,89.99
2023-01-17T08:31:24.872Z,90.06
2023-01-17T08:33:52.920Z,89.95
2023-01-17T08:36:20.843Z,90.22
2023-01-17T08:38:52.869Z,90.19
2023-01-17T08:41:23.250Z,90.66
2023-01-17T08:43:52.155Z,90.81
2023-01-17T08:46:20.139Z,91.06
2023-01-17T08:48:48.144Z,91.19
2023-01-17T08:51:16.249Z,90.93
2023-01-17T08:53:44.099Z,91.05
2023-01-17T08:56:12.115Z,91.40
2023-01-17T08:58:41.482Z,91.12
2023-01-17T09:01:09.580Z,91.32
2023-01-17T09:03:40.771Z,91.06
2023-01-17T09:06:14.050Z,90.87
2023-01-17T09:08:47.121Z,90.94
2023-01-17T09:11:17.397Z,91.29
2023-01-17T09:13:45.444Z,91.37
2023-01-17T09:16:13.542Z,91.15
2023-01-17T09:18:41.529Z,91.18
2023-01-17T09:21:17.577Z,90.34
2023-01-17T09:23:46.215Z,89.89
2023-01-17T09:26:40.472Z,89.77
2023-01-17T09:29:08.411Z,90.01
2023-01-17T09:31:36.389Z,89.94
2023-01-17T09:34:04.502Z,90.30
2023-01-17T09:36:34.077Z,90.40
2023-01-17T09:39:03.646Z,90.42
2023-01-17T09:41:34.756Z,90.50
2023-01-17T09:44:02.630Z,90.51
2023-01-17T09:46:33.782Z,90.42
2023-01-17T09:49:28.060Z,90.35
2023-01-17T09:51:56.066Z,90.57
2023-01-17T09:54:27.768Z,90.74
2023-01-17T09:57:10.727Z,90.72
2023-01-17T10:00:03.312Z,90.89
2023-01-17T10:02:56.199Z,90.87
2023-01-17T10:05:58.091Z,90.40
2023-01-17T10:08:57.556Z,90.05
2023-01-17T10:11:44.046Z,89.93
2023-01-17T10:14:11.970Z,89.64
2023-01-17T10:17:10.033Z,89.59
2023-01-17T10:20:05.365Z,89.09
2023-01-17T10:22:51.426Z,89.04
2023-01-17T10:25:39.703Z,89.27
2023-01-17T10:28:32.794Z,89.40
2023-01-17T10:31:08.025Z,88.84
2023-01-17T10:33:44.664Z,88.84
2023-01-17T10:36:20.558Z,88.40
2023-01-17T10:38:53.224Z,87.46
2023-01-17T10:41:38.357Z,87.35
2023-01-17T10:44:19.718Z,87.20
2023-01-17T10:46:54.543Z,87.22
2023-01-17T10:49:25.267Z,87.21
2023-01-17T10:51:59.883Z,87.71
2023-01-17T10:54:46.619Z,87.46
2023-01-17T10:57:27.310Z,87.72
2023-01-17T11:00:00.721Z,87.65
2023-01-17T11:02:36.891Z,87.19
2023-01-17T11:05:20.486Z,87.73
2023-01-17T11:08:04.313Z,87.37
2023-01-17T11:10:40.307Z,87.26
2023-01-17T11:13:27.345Z,87.31
2023-01-17T11:16:02.282Z,87.28
2023-01-17T11:18:33.371Z,87.52
2023-01-17T11:21:12.387Z,87.38
2023-01-17T11:23:52.761Z,87.93
2023-01-17T11:26:32.880Z,88.02
2023-01-17T11:29:34.646Z,88.17
2023-01-17T11:32:33.974Z,88.75
2023-01-17T11:35:22.572Z,89.16
2023-01-17T11:38:03.306Z,88.77
2023-01-17T11:40:43.462Z,89.29
2023-01-17T11:43:11.486Z,89.24
2023-01-17T11:45:41.082Z,89.34
2023-01-17T11:48:09.086Z,89.33
2023-01-17T11:50:44.074Z,89.22
2023-01-17T11:53:23.148Z,88.66
2023-01-17T11:55:59.572Z,88.64
2023-01-17T11:58:28.649Z,87.61
2023-01-17T12:01:10.151Z,87.17
2023-01-17T12:03:53.632Z,87.59
2023-01-17T12:07:06.591Z,87.37
2023-01-17T12:09:43.522Z,87.25
2023-01-17T12:12:53.018Z,87.64
2023-01-17T12:15:52.150Z,87.68
2023-01-17T12:18:47.275Z,87.75
2023-01-17T12:21:31.873Z,88.19
2023-01-17T12:24:21.121Z,88.21
2023-01-17T12:27:20.296Z,88.52
2023-01-17T12:30:03.486Z,88.30
2023-01-17T12:32:53.047Z,88.28
2023-01-17T12:35:38.834Z,88.34
2023-01-17T12:38:14.085Z,88.48
2023-01-17T12:40:51.259Z,88.44
2023-01-17T12:43:23.626Z,88.76
2023-01-17T12:45:54.781Z,88.40
2023-01-17T12:48:23.837Z,88.12
2023-01-17T12:50:51.744Z,87.99
2023-01-17T12:53:24.337Z,88.10
2023-01-17T12:56:09.243Z,88.25
2023-01-17T12:58:44.907Z,87.88
2023-01-17T13:01:25.572Z,87.24
2023-01-17T13:03:55.521Z,87.12
2023-01-17T13:06:36.132Z,86.77
2023-01-17T13:09:05.661Z,86.48
2023-01-17T13:11:46.681Z,85.78
2023-01-17T13:14:14.566Z,85.92
2023-01-17T13:16:57.135Z,86.04
2023-01-17T13:19:37.453Z,85.77
2023-01-17T13:22:09.209Z,85.87
2023-01-17T13:24:57.249Z,85.81
2023-01-17T13:27:38.199Z,86.00
2023-01-17T13:30:24.588Z,85.90
2023-01-17T13:33:28.502Z,85.38
2023-01-17T13:36:38.581Z,85.38
2023-01-17T13:39:44.160Z,85.66
2023-01-17T13:42:19.411Z,85.33
2023-01-17T13:44:47.640Z,84.98
2023-01-17T13:47:18.701Z,84.98
2023-01-17T13:49:51.604Z,84.68
2023-01-17T13:52:19.438Z,84.81
2023-01-17T13:54:49.873Z,84.84
2023-01-17T13:57:29.376Z,85.02
2023-01-17T14:00:23.487Z,85.00
2023-01-17T14:02:53.306Z,84.80
2023-01-17T14:05:31.552Z,84.51
2023-01-17T14:08:17.432Z,84.27
2023-01-17T14:10:50.522Z,83.61
2023-01-17T14:13:37.225Z,83.93
2023-01-17T14:16:26.833Z,83.89
2023-01-17T14:18:55.957Z,83.35
2023-01-17T14:21:33.607Z,83.73
2023-01-17T14:24:10.855Z,83.95
2023-01-17T14:27:19.194Z,83.87
2023-01-17T14:29:57.387Z,83.87
2023-01-17T14:32:35.346Z,84.21
2023-01-17T14:35:05.535Z,84.15
2023-01-17T14:37:33.393Z,83.74
2023-01-17T14:40:01.953Z,83.75
2023-01-17T14:42:31.805Z,83.64
2023-01-17T14:45:09.689Z,83.41
2023-01-17T14:47:39.434Z,83.20
2023-01-17T14:50:29.435Z,83.07
2023-01-17T14:53:15.697Z,83.32
2023-01-17T14:55:52.364Z,83.17
2023-01-17T14:58:20.334Z,83.22
2023-01-17T15:00:50.802Z,83.29
2023-01-17T15:03:19.171Z,83.27
2023-01-17T15:05:49.934Z,83.17
2023-01-17T15:08:20.505Z,83.44
2023-01-17T15:11:03.188Z,83.40
2023-01-17T15:13:44.220Z,83.37
2023-01-17T15:16:28.517Z,83.22
2023-01-17T15:18:57.546Z,83.40
2023-01-17T15:21:32.390Z,83.26
2023-01-17T15:24:04.800Z,83.46
2023-01-17T15:26:42.329Z,83.18
2023-01-17T15:29:18.775Z,83.12
2023-01-17T15:31:58.279Z,83.36
2023-01-17T15:34:44.120Z,83.04
2023-01-17T15:37:34.660Z,82.44
2023-01-17T15:40:16.901Z,82.87
2023-01-17T15:42:49.025Z,82.78
2023-01-17T15:45:20.387Z,82.66
2023-01-17T15:47:49.056Z,82.67
2023-01-17T15:50:19.727Z,82.50
2023-01-17T15:52:55.132Z,82.33
2023-01-17T15:55:30.243Z,82.66
2023-01-17T15:57:58.443Z,82.81
2023-01-17T16:00:38.392Z,82.94
2023-01-17T16:03:31.770Z,83.08
2023-01-17T16:06:02.932Z,83.36
2023-01-17T16:08:33.862Z,83.47
2023-01-17T16:11:06.213Z,83.41
2023-01-17T16:13:38.682Z,83.53
2023-01-17T16:16:15.784Z,83.57
2023-01-17T16:18:46.573Z,83.38
2023-01-17T16:21:19.899Z,83.32
2023-01-17T16:23:48.478Z,83.45
2023-01-17T16:26:16.854Z,83.36
2023-01-17T16:28:46.047Z,83.45
2023-01-17T16:31:14.496Z,83.36
2023-01-17T16:33:42.613Z,83.52
2023-01-17T16:36:14.742Z,83.75
2023-01-17T16:38:44.727Z,83.91
2023-01-17T16:41:13.242Z,84.03
2023-01-17T16:43:41.635Z,84.10
2023-01-17T16:46:12.001Z,84.23
2023-01-17T16:48:40.087Z,84.53
2023-01-17T16:51:08.467Z,84.46
2023-01-17T16:53:37.616Z,84.40
2023-01-17T16:56:10.251Z,84.47
2023-01-17T16:58:38.221Z,84.62
2023-01-17T17:01:16.594Z,84.64
2023-01-17T17:03:48.558Z,84.52
2023-01-17T17:06:22.577Z,84.65
2023-01-17T17:08:50.659Z,84.58
2023-01-17T17:11:22.034Z,84.45
2023-01-17T17:13:54.181Z,84.38
2023-01-17T17:16:26.624Z,84.78
2023-01-17T17:18:57.405Z,84.93
2023-01-17T17:21:26.398Z,85.29
2023-01-17T17:23:57.126Z,85.67
2023-01-17T17:26:34.234Z,86.15
2023-01-17T17:29:04.082Z,86.44
2023-01-17T17:31:32.410Z,86.86
2023-01-17T17:34:02.259Z,87.21
2023-01-17T17:36:30.977Z,87.81
2023-01-17T17:38:59.490Z,88.37
2023-01-17T17:41:29.452Z,88.86
2023-01-17T17:43:59.644Z,89.44
2023-01-17T17:46:29.283Z,89.78
2023-01-17T17:48:58.332Z,90.35
2023-01-17T17:51:32.566Z,90.64
2023-01-17T17:54:03.643Z,90.94
2023-01-17T17:56:32.304Z,91.46
2023-01-17T17:59:01.816Z,91.90
2023-01-17T18:01:30.090Z,92.46
2023-01-17T18:04:02.512Z,92.74
2023-01-17T18:06:30.687Z,93.03
2023-01-17T18:08:58.634Z,93.24
2023-01-17T18:11:27.622Z,93.60
2023-01-17T18:13:59.996Z,93.97
2023-01-17T18:16:30.925Z,94.01
2023-01-17T18:18:59.742Z,94.10
2023-01-17T18:21:30.931Z,94.02
2023-01-17T18:24:10.917Z,94.22
2023-01-17T18:26:44.923Z,94.55
2023-01-17T18:29:16.116Z,94.79
2023-01-17T18:31:45.146Z,95.33
2023-01-17T18:34:16.107Z,96.18
2023-01-17T18:36:44.068Z,96.09
2023-01-17T18:39:17.839Z,96.66
2023-01-17T18:41:46.307Z,96.98
2023-01-17T18:44:15.433Z,96.72
2023-01-17T18:46:43.521Z,96.45
2023-01-17T18:49:13.112Z,96.37
2023-01-17T18:51:42.829Z,96.01
2023-01-17T18:54:11.097Z,95.84
2023-01-17T18:56:39.279Z,96.16
2023-01-17T18:59:07.334Z,96.68
2023-01-17T19:01:36.361Z,96.59
2023-01-17T19:04:06.020Z,96.83
2023-01-17T19:06:42.899Z,96.84
2023-01-17T19:09:12.516Z,97.07
2023-01-17T19:11:43.098Z,97.26
2023-01-17T19:14:12.446Z,97.75
2023-01-17T19:16:41.864Z,98.14
2023-01-17T19:19:14.267Z,98.55
2023-01-17T19:21:43.146Z,98.80
2023-01-17T19:24:13.538Z,99.07
2023-01-17T19:26:43.313Z,99.38
2023-01-17T19:29:12.295Z,99.34
2023-01-17T19:31:43.144Z,99.35
2023-01-17T19:34:13.913Z,99.53
2023-01-17T19:36:42.823Z,99.48
2023-01-17T19:39:10.984Z,99.47
2023-01-17T19:41:44.989Z,99.45
2023-01-17T19:44:14.646Z,99.23
2023-01-17T19:46:44.010Z,99.33
2023-01-17T19:49:12.250Z,99.55
2023-01-17T19:51:40.437Z,99.84
2023-01-17T19:54:08.962Z,100.00
2023-01-17T19:56:36.950Z,100.00
2023-01-17T19:59:05.086Z,100.00
2023-01-17T20:01:34.519Z,100.00
2023-01-17T20:04:04.162Z,100.00
2023-01-17T20:06:35.676Z,100.00
2023-01-17T20:09:05.183Z,100.00
2023-01-17T20:11:36.491Z,100.00
2023-01-17T20:14:07.739Z,100.00
2023-01-17T20:16:37.226Z,99.71
2023-01-17T20:19:05.821Z,99.34
2023-01-17T20:21:34.544Z,99.05
2023-01-17T20:24:05.422Z,98.78
2023-01-17T20:26:35.166Z,98.43
2023-01-17T20:29:10.249Z,97.89
2023-01-17T20:31:40.528Z,97.32
2023-01-17T20:34:11.692Z,96.57
2023-01-17T20:36:41.629Z,95.96
2023-01-17T20:39:14.977Z,95.32
2023-01-17T20:41:51.527Z,95.04
2023-01-17T20:44:19.674Z,94.31
2023-01-17T20:46:49.422Z,94.02
2023-01-17T20:49:19.634Z,93.58
2023-01-17T20:51:48.524Z,93.65
2023-01-17T20:54:19.721Z,93.08
2023-01-17T20:56:47.982Z,92.62
2023-01-17T20:59:22.368Z,92.03
2023-01-17T21:01:50.812Z,91.48
2023-01-17T21:04:25.695Z,91.13
2023-01-17T21:06:54.818Z,90.83
2023-01-17T21:09:22.913Z,90.55
2023-01-17T21:11:52.191Z,90.24
2023-01-17T21:14:21.781Z,89.96
2023-01-17T21:16:50.440Z,89.82
2023-01-17T21:19:20.445Z,88.72
2023-01-17T21:21:50.026Z,88.03
2023-01-17T21:24:19.731Z,87.13
2023-01-17T21:26:49.822Z,86.65
2023-01-17T21:29:17.944Z,86.56
2023-01-17T21:31:46.412Z,86.42
2023-01-17T21:34:14.628Z,86.05
2023-01-17T21:36:43.016Z,85.26
2023-01-17T21:39:15.749Z,84.95
2023-01-17T21:41:46.334Z,84.70
2023-01-17T21:44:23.765Z,84.26
2023-01-17T21:46:54.215Z,83.51
2023-01-17T21:49:24.589Z,83.22
2023-01-17T21:51:52.742Z,82.86
2023-01-17T21:54:42.100Z,81.71
2023-01-17T21:57:29.616Z,81.60
2023-01-17T21:59:57.747Z,81.58
2023-01-17T22:02:25.757Z,81.39
2023-01-17T22:04:56.851Z,81.11
2023-01-17T22:07:27.164Z,81.16
2023-01-17T22:09:56.404Z,80.94
2023-01-17T22:12:24.570Z,80.70
2023-01-17T22:14:52.760Z,80.47
2023-01-17T22:17:21.149Z,80.07
2023-01-17T22:19:49.183Z,79.40
2023-01-17T22:22:17.145Z,78.77
2023-01-17T22:24:45.117Z,78.56
2023-01-17T22:27:13.729Z,78.38
2023-01-17T22:29:41.695Z,78.10
2023-01-17T22:32:09.601Z,77.99
2023-01-17T22:34:37.419Z,78.40
2023-01-17T22:37:10.217Z,78.48
2023-01-17T22:39:39.144Z,78.63
2023-01-17T22:42:07.252Z,78.45
2023-01-17T22:44:35.163Z,78.14
2023-01-17T22:47:03.330Z,78.56
2023-01-17T22:49:31.211Z,78.94
2023-01-17T22:51:59.113Z,79.33
2023-01-17T22:54:26.856Z,79.53
2023-01-17T22:56:54.780Z,79.81
2023-01-17T22:59:24.176Z,79.60
2023-01-17T23:01:53.790Z,79.61
2023-01-17T23:04:22.362Z,79.74
2023-01-17T23:06:50.730Z,79.46
2023-01-17T23:09:18.809Z,79.43
2023-01-17T23:11:52.084Z,79.22
2023-01-17T23:14:30.755Z,78.85
2023-01-17T23:17:20.671Z,79.14
2023-01-17T23:19:54.773Z,79.71
2023-01-17T23:22:28.302Z,80.10
2023-01-17T23:24:59.314Z,80.16
2023-01-17T23:28:00.809Z,80.41
2023-01-17T23:30:34.785Z,80.83
2023-01-17T23:33:07.177Z,81.30
2023-01-17T23:35:41.742Z,81.77
2023-01-17T23:38:26.339Z,82.02
2023-01-17T23:41:21.123Z,82.28
2023-01-17T23:43:57.245Z,82.58
2023-01-17T23:46:26.935Z,82.88
2023-01-17T23:48:55.366Z,83.08
2023-01-17T23:51:23.407Z,83.23
2023-01-17T23:53:57.584Z,83.18
2023-01-17T23:56:25.570Z,83.34
2023-01-17T23:58:53.747Z,83.67
